createdAt,value
2023-05-07T01:12:41.324Z,2.50
2023-05-07T01:15:10.500Z,2.70
2023-05-07T01:17:41.959Z,2.70
2023-05-07T01:20:15.142Z,2.60
2023-05-07T01:22:44.105Z,2.40
2023-05-07T01:25:12.869Z,2.10
2023-05-07T01:27:41.670Z,2.10
2023-05-07T01:30:10.997Z,1.80
2023-05-07T01:32:49.146Z,1.40
2023-05-07T01:35:23.507Z,1.30
2023-05-07T01:37:52.291Z,1.10
2023-05-07T01:40:21.537Z,1.10
2023-05-07T01:42:50.390Z,1.20
2023-05-07T01:45:19.168Z,1.20
2023-05-07T01:47:47.967Z,1.10
2023-05-07T01:50:17.970Z,1.30
2023-05-07T01:52:47.226Z,0.90
2023-05-07T01:55:15.909Z,1.20
2023-05-07T01:57:44.632Z,1.00
2023-05-07T02:00:13.678Z,1.00
2023-05-07T02:02:42.902Z,1.00
2023-05-07T02:05:11.692Z,1.10
2023-05-07T02:07:40.399Z,1.00
2023-05-07T02:10:09.786Z,1.10
2023-05-07T02:12:39.099Z,0.80
2023-05-07T02:15:08.400Z,0.90
2023-05-07T02:17:40.491Z,1.00
2023-05-07T02:20:14.334Z,0.90
2023-05-07T02:22:43.541Z,1.00
2023-05-07T02:25:12.809Z,1.10
2023-05-07T02:27:41.936Z,1.00
2023-05-07T02:30:11.787Z,0.90
2023-05-07T02:32:41.100Z,1.00
2023-05-07T02:35:15.062Z,0.80
2023-05-07T02:37:43.883Z,0.80
2023-05-07T02:40:13.130Z,1.00
2023-05-07T02:42:42.198Z,0.80
2023-05-07T02:45:11.452Z,0.90
2023-05-07T02:47:40.502Z,0.80
2023-05-07T02:50:11.568Z,1.00
2023-05-07T02:52:40.924Z,0.70
2023-05-07T02:55:10.102Z,0.70
2023-05-07T02:57:39.360Z,0.70
2023-05-07T03:00:12.792Z,0.70
2023-05-07T03:02:41.957Z,0.60
2023-05-07T03:05:11.099Z,0.60
2023-05-07T03:07:40.146Z,0.70
2023-05-07T03:10:10.843Z,0.80
2023-05-07T03:12:40.495Z,0.70
2023-05-07T03:15:09.928Z,1.00
2023-05-07T03:17:38.941Z,0.70
2023-05-07T03:20:08.492Z,0.70
2023-05-07T03:22:37.628Z,0.70
2023-05-07T03:25:07.506Z,0.80
2023-05-07T03:27:36.384Z,0.80
2023-05-07T03:30:05.576Z,1.00
2023-05-07T03:32:34.720Z,0.80
2023-05-07T03:35:03.789Z,0.80
2023-05-07T03:37:32.772Z,0.70
2023-05-07T03:40:01.840Z,0.60
2023-05-07T03:42:31.146Z,0.70
2023-05-07T03:45:00.026Z,0.90
2023-05-07T03:47:31.460Z,0.60
2023-05-07T03:50:00.578Z,0.70
2023-05-07T03:52:29.577Z,0.80
2023-05-07T03:54:58.427Z,0.70
2023-05-07T03:57:27.457Z,0.70
2023-05-07T03:59:56.963Z,0.70
2023-05-07T04:02:25.965Z,0.70
2023-05-07T04:04:55.559Z,0.70
2023-05-07T04:07:24.254Z,0.70
2023-05-07T04:09:53.070Z,0.60
2023-05-07T04:12:22.034Z,0.50
2023-05-07T04:14:51.232Z,0.50
2023-05-07T04:17:20.075Z,0.60
2023-05-07T04:19:48.902Z,0.70
2023-05-07T04:22:17.722Z,0.50
2023-05-07T04:24:46.692Z,0.70
2023-05-07T04:27:15.889Z,0.70
2023-05-07T04:29:48.127Z,0.50
2023-05-07T04:32:16.913Z,0.80
2023-05-07T04:34:46.135Z,0.80
2023-05-07T04:37:14.813Z,0.70
2023-05-07T04:39:43.487Z,0.50
2023-05-07T04:42:15.647Z,0.60
2023-05-07T04:44:45.155Z,0.70
2023-05-07T04:47:13.963Z,0.60
2023-05-07T04:49:42.608Z,0.70
2023-05-07T04:52:11.413Z,0.60
2023-05-07T04:54:40.156Z,0.70
2023-05-07T04:57:08.851Z,0.70
2023-05-07T04:59:37.526Z,0.70
2023-05-07T05:02:06.512Z,0.70
2023-05-07T05:04:35.218Z,0.70
2023-05-07T05:07:07.181Z,0.60
2023-05-07T05:09:35.887Z,0.70
2023-05-07T05:12:04.799Z,0.70
2023-05-07T05:14:33.729Z,0.70
2023-05-07T05:17:02.352Z,0.60
2023-05-07T05:19:31.058Z,0.80
2023-05-07T05:22:02.012Z,1.00
2023-05-07T05:24:31.407Z,0.80
2023-05-07T05:27:03.838Z,0.50
2023-05-07T05:29:32.864Z,0.80
2023-05-07T05:32:01.638Z,0.70
2023-05-07T05:34:30.985Z,0.70
2023-05-07T05:37:00.064Z,0.70
2023-05-07T05:39:28.871Z,0.70
2023-05-07T05:41:57.533Z,0.70
2023-05-07T05:44:26.435Z,0.70
2023-05-07T05:47:00.258Z,0.60
2023-05-07T05:49:29.097Z,1.00
2023-05-07T05:51:57.840Z,0.80
2023-05-07T05:54:26.852Z,0.70
2023-05-07T05:56:55.594Z,0.80
2023-05-07T05:59:24.400Z,0.70
2023-05-07T06:01:53.136Z,0.80
2023-05-07T06:04:21.903Z,0.70
2023-05-07T06:06:50.616Z,0.80
2023-05-07T06:09:19.327Z,0.80
2023-05-07T06:11:48.025Z,0.70
2023-05-07T06:14:16.800Z,0.60
2023-05-07T06:16:45.560Z,0.70
2023-05-07T06:19:14.642Z,0.80
2023-05-07T06:21:43.349Z,0.60
2023-05-07T06:24:12.052Z,0.50
2023-05-07T06:26:40.811Z,0.90
2023-05-07T06:29:09.564Z,0.60
2023-05-07T06:31:38.293Z,0.50
2023-05-07T06:34:07.298Z,0.60
2023-05-07T06:36:36.536Z,0.60
2023-05-07T06:39:05.358Z,0.60
2023-05-07T06:41:34.217Z,0.90
2023-05-07T06:44:03.571Z,1.00
2023-05-07T06:46:32.344Z,0.80
2023-05-07T06:49:01.211Z,0.90
2023-05-07T06:51:30.054Z,1.00
2023-05-07T06:53:58.759Z,0.80
2023-05-07T06:56:27.491Z,0.90
2023-05-07T06:58:56.188Z,0.90
2023-05-07T07:01:24.958Z,0.70
2023-05-07T07:03:53.709Z,1.00
2023-05-07T07:06:22.409Z,0.90
2023-05-07T07:08:51.063Z,0.70
2023-05-07T07:11:20.248Z,0.70
2023-05-07T07:13:49.163Z,0.60
2023-05-07T07:16:17.978Z,0.80
2023-05-07T07:18:46.771Z,1.10
2023-05-07T07:21:15.837Z,0.80
2023-05-07T07:23:44.588Z,0.70
2023-05-07T07:26:13.253Z,0.60
2023-05-07T07:28:45.795Z,0.80
2023-05-07T07:31:14.563Z,0.70
2023-05-07T07:33:43.436Z,0.60
2023-05-07T07:36:12.191Z,0.60
2023-05-07T07:38:40.987Z,0.70
2023-05-07T07:41:10.049Z,0.70
2023-05-07T07:43:38.769Z,0.80
2023-05-07T07:46:07.482Z,0.70
2023-05-07T07:48:36.291Z,0.70
2023-05-07T07:51:05.074Z,0.70
2023-05-07T07:53:33.868Z,1.00
2023-05-07T07:56:05.591Z,1.00
2023-05-07T07:58:36.622Z,0.80
2023-05-07T08:01:05.536Z,0.90
2023-05-07T08:03:34.307Z,0.70
2023-05-07T08:06:03.147Z,1.30
2023-05-07T08:08:31.862Z,1.40
2023-05-07T08:11:00.662Z,1.60
2023-05-07T08:13:29.388Z,1.60
2023-05-07T08:15:58.192Z,1.70
2023-05-07T08:18:27.965Z,1.10
2023-05-07T08:20:56.681Z,1.00
2023-05-07T08:23:25.475Z,1.20
2023-05-07T08:25:54.436Z,1.10
2023-05-07T08:28:23.244Z,1.60
2023-05-07T08:30:52.043Z,2.00
2023-05-07T08:33:20.992Z,1.40
2023-05-07T08:35:49.732Z,1.10
2023-05-07T08:38:18.673Z,1.20
2023-05-07T08:40:48.038Z,1.30
2023-05-07T08:43:17.882Z,1.10
2023-05-07T08:45:46.851Z,1.00
2023-05-07T08:48:16.726Z,1.20
2023-05-07T08:50:45.728Z,0.90
2023-05-07T08:53:15.680Z,1.40
2023-05-07T08:55:44.541Z,1.20
2023-05-07T08:58:13.479Z,1.40
2023-05-07T09:00:42.989Z,0.90
2023-05-07T09:03:13.825Z,1.10
2023-05-07T09:05:44.811Z,0.90
2023-05-07T09:08:15.831Z,0.80
2023-05-07T09:10:45.495Z,0.90
2023-05-07T09:13:15.818Z,1.20
2023-05-07T09:15:44.768Z,1.10
2023-05-07T09:18:16.483Z,0.90
2023-05-07T09:20:45.644Z,1.00
2023-05-07T09:23:14.990Z,0.80
2023-05-07T09:25:43.860Z,1.10
2023-05-07T09:28:12.681Z,1.00
2023-05-07T09:30:41.524Z,1.50
2023-05-07T09:33:10.419Z,1.30
2023-05-07T09:35:39.165Z,1.10
2023-05-07T09:38:08.787Z,1.60
2023-05-07T09:40:37.560Z,1.20
2023-05-07T09:43:09.923Z,1.10
2023-05-07T09:45:39.525Z,0.90
2023-05-07T09:48:09.016Z,1.00
2023-05-07T09:50:41.624Z,0.80
2023-05-07T09:53:10.944Z,0.70
2023-05-07T09:55:40.078Z,0.90
2023-05-07T09:58:10.334Z,0.90
2023-05-07T10:00:41.139Z,1.00
2023-05-07T10:03:10.898Z,0.80
2023-05-07T10:05:40.445Z,1.00
2023-05-07T10:08:09.520Z,0.80
2023-05-07T10:10:38.999Z,1.40
2023-05-07T10:13:11.789Z,1.10
2023-05-07T10:18:09.967Z,1.30
2023-05-07T10:20:39.918Z,1.40
2023-05-07T10:23:10.951Z,1.40
2023-05-07T10:25:39.691Z,2.00
2023-05-07T10:28:09.643Z,1.40
2023-05-07T10:30:47.398Z,1.20
2023-05-07T10:33:17.896Z,1.30
2023-05-07T10:35:47.791Z,1.00
2023-05-07T10:38:16.596Z,2.20
2023-05-07T10:40:47.860Z,2.10
2023-05-07T10:43:16.984Z,1.60
2023-05-07T10:46:05.626Z,1.60
2023-05-07T10:48:34.477Z,1.30
2023-05-07T10:51:22.616Z,1.20
2023-05-07T10:54:14.154Z,1.00
2023-05-07T10:56:45.821Z,1.10
2023-05-07T10:59:24.808Z,1.40
2023-05-07T11:02:04.478Z,1.50
2023-05-07T11:04:36.006Z,1.40
2023-05-07T11:07:09.305Z,1.00
2023-05-07T11:09:53.383Z,0.90
2023-05-07T11:12:37.727Z,0.90
2023-05-07T11:15:13.607Z,1.10
2023-05-07T11:17:55.714Z,1.20
2023-05-07T11:20:44.639Z,1.30
2023-05-07T11:23:33.262Z,0.90
2023-05-07T11:26:01.991Z,0.70
2023-05-07T11:28:31.930Z,0.90
2023-05-07T11:31:00.969Z,1.00
2023-05-07T11:33:30.336Z,1.00
2023-05-07T11:36:00.330Z,0.90
2023-05-07T11:38:29.699Z,1.00
2023-05-07T11:41:03.552Z,1.00
2023-05-07T11:43:33.182Z,1.20
2023-05-07T11:46:09.829Z,1.10
2023-05-07T11:48:39.221Z,1.00
2023-05-07T11:51:10.042Z,0.80
2023-05-07T11:53:40.405Z,0.90
2023-05-07T11:56:09.874Z,1.00
2023-05-07T11:58:38.687Z,1.10
2023-05-07T12:01:10.668Z,1.00
2023-05-07T12:03:43.955Z,1.10
2023-05-07T12:06:13.792Z,1.70
2023-05-07T12:08:44.323Z,2.40
2023-05-07T12:11:15.735Z,1.10
2023-05-07T12:13:44.592Z,1.10
2023-05-07T12:16:13.681Z,1.10
2023-05-07T12:18:42.475Z,1.20
2023-05-07T12:21:11.913Z,1.10
2023-05-07T12:23:40.768Z,1.00
2023-05-07T12:26:09.494Z,0.90
2023-05-07T12:28:40.095Z,1.00
2023-05-07T12:31:09.108Z,1.10
2023-05-07T12:33:37.955Z,1.20
2023-05-07T12:36:08.097Z,2.00
2023-05-07T12:38:37.913Z,2.60
2023-05-07T12:41:08.176Z,1.20
2023-05-07T12:43:37.298Z,2.10
2023-05-07T12:46:07.405Z,1.80
2023-05-07T12:48:39.802Z,1.50
2023-05-07T12:51:11.202Z,1.30
2023-05-07T12:53:45.776Z,1.10
2023-05-07T12:56:16.816Z,1.10
2023-05-07T12:58:45.600Z,1.10
2023-05-07T13:01:16.662Z,1.50
2023-05-07T13:03:49.107Z,1.50
2023-05-07T13:06:18.045Z,1.30
2023-05-07T13:08:46.697Z,2.20
2023-05-07T13:11:15.462Z,1.90
2023-05-07T13:13:44.206Z,1.60
2023-05-07T13:16:13.479Z,1.70
2023-05-07T13:18:44.784Z,1.70
2023-05-07T13:21:14.326Z,1.30
2023-05-07T13:23:43.304Z,1.00
2023-05-07T13:26:25.441Z,1.20
2023-05-07T13:28:55.435Z,0.90
2023-05-07T13:31:24.891Z,2.40
2023-05-07T13:33:54.065Z,4.10
2023-05-07T13:36:22.859Z,2.00
2023-05-07T13:38:53.007Z,2.70
2023-05-07T13:41:22.064Z,2.00
2023-05-07T13:43:50.738Z,1.80
2023-05-07T13:46:19.883Z,1.50
2023-05-07T13:48:48.652Z,1.50
2023-05-07T13:51:18.003Z,1.60
2023-05-07T13:53:46.743Z,1.30
2023-05-07T13:56:15.942Z,1.50
2023-05-07T13:58:52.373Z,1.00
2023-05-07T14:01:28.225Z,1.10
2023-05-07T14:03:58.181Z,1.70
2023-05-07T14:06:27.048Z,1.30
2023-05-07T14:08:55.934Z,1.30
2023-05-07T14:11:24.676Z,1.10
2023-05-07T14:13:53.554Z,1.00
2023-05-07T14:16:22.210Z,1.10
2023-05-07T14:18:51.072Z,1.10
2023-05-07T14:21:19.878Z,1.20
2023-05-07T14:23:49.341Z,1.40
2023-05-07T14:26:18.362Z,1.20
2023-05-07T14:28:47.519Z,1.10
2023-05-07T14:31:16.732Z,0.90
2023-05-07T14:33:45.625Z,1.00
2023-05-07T14:36:14.378Z,1.10
2023-05-07T14:38:43.303Z,1.30
2023-05-07T14:41:11.977Z,1.10
2023-05-07T14:43:41.332Z,1.10
2023-05-07T14:46:10.127Z,1.10
2023-05-07T14:48:39.053Z,0.80
2023-05-07T14:51:07.737Z,0.80
2023-05-07T14:53:36.696Z,1.50
2023-05-07T14:56:06.463Z,1.00
2023-05-07T14:58:35.574Z,0.60
2023-05-07T15:01:04.589Z,1.10
2023-05-07T15:03:33.422Z,1.00
2023-05-07T15:06:03.397Z,0.90
2023-05-07T15:08:32.102Z,0.90
2023-05-07T15:11:00.915Z,0.70
2023-05-07T15:13:29.664Z,0.70
2023-05-07T15:15:58.474Z,0.90
2023-05-07T15:18:27.406Z,0.80
2023-05-07T15:20:56.729Z,0.90
2023-05-07T15:23:25.594Z,0.70
2023-05-07T15:25:54.426Z,1.10
2023-05-07T15:28:23.206Z,0.90
2023-05-07T15:30:52.175Z,0.80
2023-05-07T15:33:22.358Z,1.10
2023-05-07T15:35:51.175Z,1.10
2023-05-07T15:38:20.064Z,0.70
2023-05-07T15:40:49.149Z,0.70
2023-05-07T15:43:18.147Z,1.10
2023-05-07T15:45:46.894Z,0.60
2023-05-07T15:48:15.578Z,1.10
2023-05-07T15:50:44.279Z,1.10
2023-05-07T15:53:13.923Z,1.00
2023-05-07T15:55:43.924Z,0.70
2023-05-07T15:58:12.698Z,0.50
2023-05-07T16:00:42.221Z,0.70
2023-05-07T16:03:11.235Z,0.80
2023-05-07T16:05:40.107Z,0.60
2023-05-07T16:08:08.830Z,0.60
2023-05-07T16:10:37.520Z,0.80
2023-05-07T16:13:07.139Z,0.90
2023-05-07T16:15:36.268Z,0.70
2023-05-07T16:18:05.139Z,0.80
2023-05-07T16:20:33.915Z,1.10
2023-05-07T16:23:02.642Z,0.70
2023-05-07T16:25:31.852Z,0.70
2023-05-07T16:28:00.685Z,0.80
2023-05-07T16:30:29.389Z,0.60
2023-05-07T16:32:58.125Z,0.80
2023-05-07T16:35:26.923Z,0.70
2023-05-07T16:37:55.711Z,0.90
2023-05-07T16:40:24.520Z,0.60
2023-05-07T16:42:55.263Z,0.80
2023-05-07T16:45:24.380Z,0.90
2023-05-07T16:47:53.659Z,0.70
2023-05-07T16:50:22.513Z,0.70
2023-05-07T16:52:51.553Z,0.80
2023-05-07T16:55:22.814Z,1.10
2023-05-07T16:57:51.623Z,1.10
2023-05-07T17:00:20.617Z,1.30
2023-05-07T17:02:49.388Z,1.00
2023-05-07T17:05:19.742Z,1.10
2023-05-07T17:07:48.584Z,0.80
2023-05-07T17:10:17.354Z,1.20
2023-05-07T17:12:46.233Z,0.80
2023-05-07T17:15:14.966Z,1.10
2023-05-07T17:17:43.780Z,0.80
2023-05-07T17:20:12.871Z,1.10
2023-05-07T17:22:41.806Z,0.80
2023-05-07T17:25:11.649Z,0.90
2023-05-07T17:27:41.130Z,1.00
2023-05-07T17:30:10.205Z,1.60
2023-05-07T17:32:39.232Z,1.20
2023-05-07T17:35:08.159Z,1.00
2023-05-07T17:37:36.856Z,1.10
2023-05-07T17:40:06.225Z,1.00
2023-05-07T17:42:34.946Z,1.20
2023-05-07T17:45:03.740Z,1.40
2023-05-07T17:47:32.452Z,1.60
2023-05-07T17:50:02.934Z,1.60
2023-05-07T17:52:31.628Z,1.40
2023-05-07T17:55:00.550Z,1.60
2023-05-07T17:57:31.490Z,1.40
2023-05-07T18:00:00.790Z,1.50
2023-05-07T18:02:29.706Z,1.20
2023-05-07T18:04:58.620Z,1.50
2023-05-07T18:07:27.552Z,1.50
2023-05-07T18:09:56.310Z,1.40
2023-05-07T18:12:27.370Z,1.40
2023-05-07T18:14:56.510Z,1.30
2023-05-07T18:17:26.578Z,1.50
2023-05-07T18:19:55.595Z,1.40
2023-05-07T18:22:24.412Z,1.30
2023-05-07T18:24:53.065Z,2.70
2023-05-07T18:27:21.786Z,3.60
2023-05-07T18:29:50.557Z,3.30
2023-05-07T18:32:19.386Z,2.00
2023-05-07T18:34:48.371Z,1.90
2023-05-07T18:37:17.291Z,1.20
2023-05-07T18:39:48.932Z,1.10
2023-05-07T18:42:17.641Z,1.30
2023-05-07T18:44:46.407Z,1.10
2023-05-07T18:47:15.086Z,1.30
2023-05-07T18:49:43.778Z,1.40
2023-05-07T18:52:12.484Z,1.50
2023-05-07T18:54:41.706Z,1.20
2023-05-07T18:57:10.579Z,1.40
2023-05-07T18:59:39.648Z,1.30
2023-05-07T19:02:08.330Z,1.50
2023-05-07T19:04:37.122Z,1.20
2023-05-07T19:07:06.258Z,1.50
2023-05-07T19:09:35.008Z,1.70
2023-05-07T19:12:03.921Z,1.50
2023-05-07T19:14:32.701Z,1.40
2023-05-07T19:17:01.511Z,1.50
2023-05-07T19:19:30.503Z,1.70
2023-05-07T19:21:59.271Z,1.60
2023-05-07T19:24:27.996Z,1.40
2023-05-07T19:26:56.733Z,1.60
2023-05-07T19:29:25.575Z,1.40
2023-05-07T19:31:54.305Z,1.60
2023-05-07T19:34:23.056Z,1.70
2023-05-07T19:36:51.753Z,1.70
2023-05-07T19:39:20.559Z,1.60
2023-05-07T19:41:49.280Z,1.90
2023-05-07T19:44:17.978Z,1.70
2023-05-07T19:46:47.832Z,2.10
2023-05-07T19:49:16.570Z,1.80
2023-05-07T19:51:45.343Z,2.10
2023-05-07T19:54:14.137Z,2.00
2023-05-07T19:56:42.873Z,1.60
2023-05-07T19:59:11.630Z,1.80
2023-05-07T20:01:40.459Z,2.00
2023-05-07T20:04:09.309Z,1.60
2023-05-07T20:06:38.089Z,2.10
2023-05-07T20:09:10.219Z,1.80
2023-05-07T20:11:42.071Z,1.70
2023-05-07T20:14:11.328Z,1.70
2023-05-07T20:16:40.908Z,1.90
2023-05-07T20:19:09.704Z,1.80
2023-05-07T20:21:38.436Z,1.90
2023-05-07T20:24:07.529Z,2.00
2023-05-07T20:26:36.315Z,1.60
2023-05-07T20:29:05.530Z,1.60
2023-05-07T20:31:35.360Z,1.90
2023-05-07T20:34:04.183Z,1.70
2023-05-07T20:36:32.953Z,2.00
2023-05-07T20:39:01.750Z,1.60
2023-05-07T20:41:30.455Z,1.90
2023-05-07T20:44:00.429Z,2.00
2023-05-07T20:46:29.739Z,1.90
2023-05-07T20:48:58.617Z,1.90
2023-05-07T20:51:27.351Z,2.00
2023-05-07T20:53:56.204Z,1.70
2023-05-07T20:56:24.939Z,2.10
2023-05-07T20:58:53.711Z,1.80
2023-05-07T21:01:22.838Z,1.70
2023-05-07T21:03:54.307Z,1.60
2023-05-07T21:06:23.426Z,1.70
2023-05-07T21:08:52.346Z,1.90
2023-05-07T21:11:21.649Z,1.90
2023-05-07T21:13:50.364Z,1.80
2023-05-07T21:16:19.259Z,1.90
2023-05-07T21:18:48.206Z,1.80
2023-05-07T21:21:16.934Z,2.10
2023-05-07T21:23:45.691Z,2.40
2023-05-07T21:26:20.735Z,1.80
2023-05-07T21:28:49.453Z,2.00
2023-05-07T21:31:18.472Z,1.70
2023-05-07T21:33:47.244Z,2.40
2023-05-07T21:36:15.945Z,2.20
2023-05-07T21:38:45.075Z,3.10
2023-05-07T21:41:14.173Z,2.80
2023-05-07T21:43:43.170Z,2.50
2023-05-07T21:46:11.939Z,2.40
2023-05-07T21:48:41.020Z,2.30
2023-05-07T21:51:09.805Z,2.40
2023-05-07T21:53:38.574Z,2.40
2023-05-07T21:56:07.334Z,3.10
2023-05-07T21:58:36.018Z,4.30
2023-05-07T22:01:05.489Z,4.40
2023-05-07T22:03:34.508Z,5.00
2023-05-07T22:06:03.305Z,6.90
2023-05-07T22:08:32.292Z,6.70
2023-05-07T22:11:01.071Z,7.80
2023-05-07T22:13:29.814Z,7.40
2023-05-07T22:15:58.866Z,7.50
2023-05-07T22:18:27.631Z,8.30
2023-05-07T22:20:56.356Z,9.20
2023-05-07T22:23:25.041Z,7.90
2023-05-07T22:25:53.739Z,7.30
2023-05-07T22:28:22.446Z,7.30
2023-05-07T22:30:51.369Z,6.30
2023-05-07T22:33:20.399Z,6.80
2023-05-07T22:35:49.073Z,6.90
2023-05-07T22:38:17.894Z,6.20
2023-05-07T22:40:46.569Z,6.20
2023-05-07T22:43:15.243Z,6.10
2023-05-07T22:45:43.964Z,5.30
2023-05-07T22:48:12.720Z,6.20
2023-05-07T22:50:41.474Z,6.00
2023-05-07T22:53:10.246Z,5.30
2023-05-07T22:55:39.377Z,5.50
2023-05-07T22:58:08.329Z,4.90
2023-05-07T23:00:37.051Z,5.30
2023-05-07T23:03:05.813Z,5.90
2023-05-07T23:05:34.858Z,5.80
2023-05-07T23:08:03.625Z,6.00
2023-05-07T23:10:34.558Z,6.50
2023-05-07T23:13:03.351Z,5.90
2023-05-07T23:15:33.359Z,5.70
2023-05-07T23:18:02.166Z,5.90
2023-05-07T23:20:31.396Z,6.20
2023-05-07T23:23:00.130Z,6.40
2023-05-07T23:25:29.786Z,6.90
2023-05-07T23:27:58.499Z,6.40
2023-05-07T23:30:27.475Z,7.50
2023-05-07T23:32:56.262Z,7.30
2023-05-07T23:35:24.957Z,7.10
2023-05-07T23:37:53.730Z,7.40
2023-05-07T23:40:22.507Z,7.30
2023-05-07T23:42:51.258Z,6.70
2023-05-07T23:45:19.922Z,7.80
2023-05-07T23:47:48.676Z,7.90
2023-05-07T23:50:17.465Z,8.50
2023-05-07T23:52:46.184Z,8.90
2023-05-07T23:55:16.709Z,9.90
2023-05-07T23:57:45.491Z,9.40
